sensor_id;sensor_type;location;lat;lon;timestamp;P1;durP1;ratioP1;P2;durP2;ratioP2
14754;SDS011;7469;50.906;6.952;2022-08-01T00:01:14;2.03;;;1.47;;
14754;SDS011;7469;50.906;6.952;2022-08-01T00:03:44;4.87;;;1.40;;
14754;SDS011;7469;50.906;6.952;2022-08-01T00:06:12;5.73;;;1.53;;
14754;SDS011;7469;50.906;6.952;2022-08-01T00:08:40;1.70;;;1.27;;
14754;SDS011;7469;50.906;6.952;2022-08-01T00:11:08;4.50;;;1.37;;
14754;SDS011;7469;50.906;6.952;2022-08-01T00:13:36;3.73;;;1.30;;
14754;SDS011;7469;50.906;6.952;2022-08-01T00:16:04;1.90;;;1.20;;
14754;SDS011;7469;50.906;6.952;2022-08-01T00:18:32;2.13;;;1.20;;
14754;SDS011;7469;50.906;6.952;2022-08-01T00:21:02;2.73;;;1.43;;
14754;SDS011;7469;50.906;6.952;2022-08-01T00:23:30;1.93;;;1.20;;
14754;SDS011;7469;50.906;6.952;2022-08-01T00:25:58;2.80;;;1.37;;
14754;SDS011;7469;50.906;6.952;2022-08-01T00:28:27;4.60;;;1.40;;
14754;SDS011;7469;50.906;6.952;2022-08-01T00:30:55;2.40;;;1.40;;
14754;SDS011;7469;50.906;6.952;2022-08-01T00:33:23;4.90;;;1.77;;
14754;SDS011;7469;50.906;6.952;2022-08-01T00:35:51;1.73;;;1.60;;
14754;SDS011;7469;50.906;6.952;2022-08-01T00:38:20;1.63;;;1.37;;
14754;SDS011;7469;50.906;6.952;2022-08-01T00:40:48;3.17;;;1.60;;
14754;SDS011;7469;50.906;6.952;2022-08-01T00:43:17;2.87;;;1.47;;
14754;SDS011;7469;50.906;6.952;2022-08-01T00:45:45;2.07;;;1.70;;
14754;SDS011;7469;50.906;6.952;2022-08-01T00:48:13;2.10;;;1.47;;
14754;SDS011;7469;50.906;6.952;2022-08-01T00:50:41;4.13;;;1.53;;
14754;SDS011;7469;50.906;6.952;2022-08-01T00:53:09;4.53;;;1.30;;
14754;SDS011;7469;50.906;6.952;2022-08-01T00:55:45;2.13;;;1.40;;
14754;SDS011;7469;50.906;6.952;2022-08-01T00:58:14;1.93;;;1.40;;
14754;SDS011;7469;50.906;6.952;2022-08-01T01:00:43;2.73;;;1.50;;
14754;SDS011;7469;50.906;6.952;2022-08-01T01:03:19;2.40;;;1.60;;
14754;SDS011;7469;50.906;6.952;2022-08-01T01:06:16;1.70;;;1.47;;
14754;SDS011;7469;50.906;6.952;2022-08-01T01:09:02;3.17;;;1.70;;
14754;SDS011;7469;50.906;6.952;2022-08-01T01:11:47;2.77;;;1.70;;
14754;SDS011;7469;50.906;6.952;2022-08-01T01:14:27;4.53;;;1.63;;
14754;SDS011;7469;50.906;6.952;2022-08-01T01:17:00;3.97;;;1.73;;
14754;SDS011;7469;50.906;6.952;2022-08-01T01:19:32;2.50;;;1.50;;
14754;SDS011;7469;50.906;6.952;2022-08-01T01:22:11;2.07;;;1.50;;
14754;SDS011;7469;50.906;6.952;2022-08-01T01:24:55;3.00;;;1.43;;
14754;SDS011;7469;50.906;6.952;2022-08-01T01:27:39;2.80;;;1.50;;
14754;SDS011;7469;50.906;6.952;2022-08-01T01:30:16;2.67;;;1.70;;
14754;SDS011;7469;50.906;6.952;2022-08-01T01:32:46;1.63;;;1.53;;
14754;SDS011;7469;50.906;6.952;2022-08-01T01:35:19;3.73;;;2.00;;
14754;SDS011;7469;50.906;6.952;2022-08-01T01:37:51;2.93;;;1.53;;
14754;SDS011;7469;50.906;6.952;2022-08-01T01:40:22;3.60;;;1.93;;
14754;SDS011;7469;50.906;6.952;2022-08-01T01:42:51;3.83;;;2.00;;
14754;SDS011;7469;50.906;6.952;2022-08-01T01:45:22;2.60;;;1.83;;
14754;SDS011;7469;50.906;6.952;2022-08-01T01:47:51;2.33;;;1.90;;
14754;SDS011;7469;50.906;6.952;2022-08-01T01:50:20;2.63;;;1.80;;
14754;SDS011;7469;50.906;6.952;2022-08-01T01:52:50;4.03;;;1.90;;
14754;SDS011;7469;50.906;6.952;2022-08-01T01:55:19;5.47;;;1.60;;
14754;SDS011;7469;50.906;6.952;2022-08-01T01:57:51;4.10;;;1.83;;
14754;SDS011;7469;50.906;6.952;2022-08-01T02:00:22;2.07;;;1.60;;
14754;SDS011;7469;50.906;6.952;2022-08-01T02:02:51;3.40;;;2.00;;
14754;SDS011;7469;50.906;6.952;2022-08-01T02:05:21;2.03;;;1.77;;
14754;SDS011;7469;50.906;6.952;2022-08-01T02:07:51;2.73;;;1.90;;
14754;SDS011;7469;50.906;6.952;2022-08-01T02:10:25;2.50;;;1.80;;
14754;SDS011;7469;50.906;6.952;2022-08-01T02:12:54;3.80;;;2.07;;
14754;SDS011;7469;50.906;6.952;2022-08-01T02:15:26;2.27;;;1.93;;
14754;SDS011;7469;50.906;6.952;2022-08-01T02:17:56;3.10;;;2.00;;
14754;SDS011;7469;50.906;6.952;2022-08-01T02:20:26;4.63;;;2.20;;
14754;SDS011;7469;50.906;6.952;2022-08-01T02:22:57;3.10;;;1.90;;
14754;SDS011;7469;50.906;6.952;2022-08-01T02:25:34;2.00;;;1.70;;
14754;SDS011;7469;50.906;6.952;2022-08-01T02:28:29;3.70;;;1.90;;
14754;SDS011;7469;50.906;6.952;2022-08-01T02:31:02;4.17;;;2.30;;
14754;SDS011;7469;50.906;6.952;2022-08-01T02:33:40;1.97;;;1.50;;
14754;SDS011;7469;50.906;6.952;2022-08-01T02:36:11;4.23;;;2.10;;
14754;SDS011;7469;50.906;6.952;2022-08-01T02:38:59;3.33;;;2.00;;
14754;SDS011;7469;50.906;6.952;2022-08-01T02:41:30;4.13;;;2.00;;
14754;SDS011;7469;50.906;6.952;2022-08-01T02:44:02;6.83;;;2.23;;
14754;SDS011;7469;50.906;6.952;2022-08-01T02:46:34;3.70;;;2.13;;
14754;SDS011;7469;50.906;6.952;2022-08-01T02:49:06;3.10;;;2.37;;
14754;SDS011;7469;50.906;6.952;2022-08-01T02:51:36;4.47;;;2.27;;
14754;SDS011;7469;50.906;6.952;2022-08-01T02:54:07;7.07;;;2.30;;
14754;SDS011;7469;50.906;6.952;2022-08-01T02:56:37;3.20;;;2.40;;
14754;SDS011;7469;50.906;6.952;2022-08-01T02:59:07;2.60;;;2.13;;
14754;SDS011;7469;50.906;6.952;2022-08-01T03:01:41;4.10;;;2.40;;
14754;SDS011;7469;50.906;6.952;2022-08-01T03:04:11;4.40;;;2.30;;
14754;SDS011;7469;50.906;6.952;2022-08-01T03:06:41;6.33;;;2.57;;
14754;SDS011;7469;50.906;6.952;2022-08-01T03:09:10;4.67;;;2.50;;
14754;SDS011;7469;50.906;6.952;2022-08-01T03:11:39;3.73;;;2.77;;
14754;SDS011;7469;50.906;6.952;2022-08-01T03:14:10;5.53;;;3.10;;
14754;SDS011;7469;50.906;6.952;2022-08-01T03:16:41;5.73;;;2.80;;
14754;SDS011;7469;50.906;6.952;2022-08-01T03:19:12;4.20;;;2.60;;
14754;SDS011;7469;50.906;6.952;2022-08-01T03:21:41;3.97;;;2.63;;
14754;SDS011;7469;50.906;6.952;2022-08-01T03:24:11;4.43;;;3.00;;
14754;SDS011;7469;50.906;6.952;2022-08-01T03:26:41;5.67;;;2.47;;
14754;SDS011;7469;50.906;6.952;2022-08-01T03:29:12;3.60;;;3.30;;
14754;SDS011;7469;50.906;6.952;2022-08-01T03:31:46;4.63;;;3.20;;
14754;SDS011;7469;50.906;6.952;2022-08-01T03:34:16;4.63;;;2.60;;
14754;SDS011;7469;50.906;6.952;2022-08-01T03:36:46;4.07;;;2.70;;
14754;SDS011;7469;50.906;6.952;2022-08-01T03:39:17;4.90;;;2.93;;
14754;SDS011;7469;50.906;6.952;2022-08-01T03:41:51;4.57;;;3.43;;
14754;SDS011;7469;50.906;6.952;2022-08-01T03:44:24;4.00;;;3.00;;
14754;SDS011;7469;50.906;6.952;2022-08-01T03:46:58;5.27;;;2.80;;
14754;SDS011;7469;50.906;6.952;2022-08-01T03:49:29;8.33;;;3.30;;
14754;SDS011;7469;50.906;6.952;2022-08-01T03:52:01;4.90;;;3.03;;
14754;SDS011;7469;50.906;6.952;2022-08-01T03:54:32;4.77;;;3.30;;
14754;SDS011;7469;50.906;6.952;2022-08-01T03:57:03;5.37;;;3.33;;
14754;SDS011;7469;50.906;6.952;2022-08-01T03:59:34;5.10;;;3.10;;
14754;SDS011;7469;50.906;6.952;2022-08-01T04:02:05;6.93;;;3.47;;
14754;SDS011;7469;50.906;6.952;2022-08-01T04:04:34;7.53;;;3.50;;
14754;SDS011;7469;50.906;6.952;2022-08-01T04:07:02;4.23;;;3.07;;
14754;SDS011;7469;50.906;6.952;2022-08-01T04:09:33;6.93;;;3.33;;
14754;SDS011;7469;50.906;6.952;2022-08-01T04:12:01;5.80;;;3.60;;
14754;SDS011;7469;50.906;6.952;2022-08-01T04:14:37;5.77;;;3.83;;
14754;SDS011;7469;50.906;6.952;2022-08-01T04:17:06;5.57;;;4.10;;
14754;SDS011;7469;50.906;6.952;2022-08-01T04:19:34;6.27;;;4.07;;
14754;SDS011;7469;50.906;6.952;2022-08-01T04:22:03;6.47;;;4.40;;
14754;SDS011;7469;50.906;6.952;2022-08-01T04:24:33;5.93;;;4.10;;
14754;SDS011;7469;50.906;6.952;2022-08-01T04:27:05;6.73;;;4.20;;
14754;SDS011;7469;50.906;6.952;2022-08-01T04:29:37;5.77;;;4.20;;
14754;SDS011;7469;50.906;6.952;2022-08-01T04:32:08;8.33;;;4.20;;
14754;SDS011;7469;50.906;6.952;2022-08-01T04:34:40;6.50;;;4.40;;
14754;SDS011;7469;50.906;6.952;2022-08-01T04:37:09;8.07;;;4.50;;
14754;SDS011;7469;50.906;6.952;2022-08-01T04:39:39;5.97;;;4.10;;
14754;SDS011;7469;50.906;6.952;2022-08-01T04:42:16;6.93;;;4.20;;
14754;SDS011;7469;50.906;6.952;2022-08-01T04:44:55;6.27;;;4.37;;
14754;SDS011;7469;50.906;6.952;2022-08-01T04:47:24;8.60;;;4.10;;
14754;SDS011;7469;50.906;6.952;2022-08-01T04:49:53;7.27;;;4.40;;
14754;SDS011;7469;50.906;6.952;2022-08-01T04:52:22;8.30;;;5.10;;
14754;SDS011;7469;50.906;6.952;2022-08-01T04:54:51;5.53;;;4.47;;
14754;SDS011;7469;50.906;6.952;2022-08-01T04:57:18;8.13;;;6.10;;
14754;SDS011;7469;50.906;6.952;2022-08-01T04:59:47;7.03;;;5.73;;
14754;SDS011;7469;50.906;6.952;2022-08-01T05:02:22;5.73;;;4.97;;
14754;SDS011;7469;50.906;6.952;2022-08-01T05:04:54;8.53;;;5.73;;
14754;SDS011;7469;50.906;6.952;2022-08-01T05:07:22;10.77;;;5.73;;
14754;SDS011;7469;50.906;6.952;2022-08-01T05:09:50;9.50;;;5.83;;
14754;SDS011;7469;50.906;6.952;2022-08-01T05:12:18;6.53;;;5.60;;
14754;SDS011;7469;50.906;6.952;2022-08-01T05:14:46;9.97;;;6.40;;
14754;SDS011;7469;50.906;6.952;2022-08-01T05:17:14;9.27;;;5.70;;
14754;SDS011;7469;50.906;6.952;2022-08-01T05:19:44;9.07;;;5.53;;
14754;SDS011;7469;50.906;6.952;2022-08-01T05:22:12;10.43;;;6.03;;
14754;SDS011;7469;50.906;6.952;2022-08-01T05:24:40;10.07;;;6.33;;
14754;SDS011;7469;50.906;6.952;2022-08-01T05:27:10;10.60;;;6.83;;
14754;SDS011;7469;50.906;6.952;2022-08-01T05:29:41;9.07;;;6.77;;
14754;SDS011;7469;50.906;6.952;2022-08-01T05:32:10;12.40;;;7.13;;
14754;SDS011;7469;50.906;6.952;2022-08-01T05:34:38;11.60;;;6.33;;
14754;SDS011;7469;50.906;6.952;2022-08-01T05:37:08;10.83;;;6.77;;
14754;SDS011;7469;50.906;6.952;2022-08-01T05:39:36;10.20;;;7.87;;
14754;SDS011;7469;50.906;6.952;2022-08-01T05:42:04;10.33;;;6.47;;
14754;SDS011;7469;50.906;6.952;2022-08-01T05:44:33;9.07;;;7.80;;
14754;SDS011;7469;50.906;6.952;2022-08-01T05:47:00;13.13;;;8.50;;
14754;SDS011;7469;50.906;6.952;2022-08-01T05:49:29;10.13;;;8.17;;
14754;SDS011;7469;50.906;6.952;2022-08-01T05:51:57;14.60;;;8.63;;
14754;SDS011;7469;50.906;6.952;2022-08-01T05:54:28;9.07;;;7.47;;
14754;SDS011;7469;50.906;6.952;2022-08-01T05:56:56;12.20;;;8.50;;
14754;SDS011;7469;50.906;6.952;2022-08-01T05:59:27;10.50;;;7.33;;
14754;SDS011;7469;50.906;6.952;2022-08-01T06:01:55;9.93;;;7.57;;
14754;SDS011;7469;50.906;6.952;2022-08-01T06:04:23;15.80;;;8.10;;
14754;SDS011;7469;50.906;6.952;2022-08-01T06:06:52;10.80;;;9.37;;
14754;SDS011;7469;50.906;6.952;2022-08-01T06:09:20;12.53;;;8.83;;
14754;SDS011;7469;50.906;6.952;2022-08-01T06:11:49;12.97;;;9.40;;
14754;SDS011;7469;50.906;6.952;2022-08-01T06:14:18;14.57;;;10.10;;
14754;SDS011;7469;50.906;6.952;2022-08-01T06:16:46;11.67;;;9.23;;
14754;SDS011;7469;50.906;6.952;2022-08-01T06:19:14;12.40;;;9.47;;
14754;SDS011;7469;50.906;6.952;2022-08-01T06:21:42;14.03;;;8.83;;
14754;SDS011;7469;50.906;6.952;2022-08-01T06:24:10;13.53;;;8.73;;
14754;SDS011;7469;50.906;6.952;2022-08-01T06:26:38;11.60;;;9.13;;
14754;SDS011;7469;50.906;6.952;2022-08-01T06:29:08;10.93;;;8.50;;
14754;SDS011;7469;50.906;6.952;2022-08-01T06:31:37;9.90;;;8.20;;
14754;SDS011;7469;50.906;6.952;2022-08-01T06:34:05;11.13;;;8.90;;
14754;SDS011;7469;50.906;6.952;2022-08-01T06:36:34;11.03;;;8.17;;
14754;SDS011;7469;50.906;6.952;2022-08-01T06:39:02;15.47;;;8.77;;
14754;SDS011;7469;50.906;6.952;2022-08-01T06:41:30;12.93;;;8.27;;
14754;SDS011;7469;50.906;6.952;2022-08-01T06:43:58;12.73;;;7.73;;
14754;SDS011;7469;50.906;6.952;2022-08-01T06:46:30;13.73;;;7.73;;
14754;SDS011;7469;50.906;6.952;2022-08-01T06:49:00;12.07;;;7.87;;
14754;SDS011;7469;50.906;6.952;2022-08-01T06:51:28;9.40;;;7.73;;
14754;SDS011;7469;50.906;6.952;2022-08-01T06:53:56;13.83;;;8.17;;
14754;SDS011;7469;50.906;6.952;2022-08-01T06:56:24;13.50;;;7.90;;
14754;SDS011;7469;50.906;6.952;2022-08-01T06:58:52;17.07;;;6.90;;
14754;SDS011;7469;50.906;6.952;2022-08-01T07:01:22;11.40;;;7.77;;
14754;SDS011;7469;50.906;6.952;2022-08-01T07:03:52;9.70;;;7.57;;
14754;SDS011;7469;50.906;6.952;2022-08-01T07:06:21;8.47;;;7.33;;
14754;SDS011;7469;50.906;6.952;2022-08-01T07:08:50;9.03;;;7.37;;
14754;SDS011;7469;50.906;6.952;2022-08-01T07:11:18;8.73;;;6.47;;
14754;SDS011;7469;50.906;6.952;2022-08-01T07:13:46;10.60;;;6.80;;
14754;SDS011;7469;50.906;6.952;2022-08-01T07:16:14;10.40;;;5.90;;
14754;SDS011;7469;50.906;6.952;2022-08-01T07:18:43;9.47;;;7.13;;
14754;SDS011;7469;50.906;6.952;2022-08-01T07:21:12;7.57;;;6.67;;
14754;SDS011;7469;50.906;6.952;2022-08-01T07:24:00;10.13;;;6.37;;
14754;SDS011;7469;50.906;6.952;2022-08-01T07:26:39;7.90;;;6.43;;
14754;SDS011;7469;50.906;6.952;2022-08-01T07:29:19;7.63;;;6.07;;
14754;SDS011;7469;50.906;6.952;2022-08-01T07:31:48;7.07;;;6.30;;
14754;SDS011;7469;50.906;6.952;2022-08-01T07:34:16;9.77;;;7.10;;
14754;SDS011;7469;50.906;6.952;2022-08-01T07:36:46;9.07;;;6.60;;
14754;SDS011;7469;50.906;6.952;2022-08-01T07:39:14;10.03;;;6.50;;
14754;SDS011;7469;50.906;6.952;2022-08-01T07:41:42;10.83;;;7.50;;
14754;SDS011;7469;50.906;6.952;2022-08-01T07:44:30;10.67;;;6.90;;
14754;SDS011;7469;50.906;6.952;2022-08-01T07:46:58;7.87;;;6.23;;
14754;SDS011;7469;50.906;6.952;2022-08-01T07:49:26;6.77;;;6.07;;
14754;SDS011;7469;50.906;6.952;2022-08-01T07:51:55;7.53;;;5.90;;
14754;SDS011;7469;50.906;6.952;2022-08-01T07:54:38;10.87;;;6.80;;
14754;SDS011;7469;50.906;6.952;2022-08-01T07:57:07;10.27;;;7.10;;
14754;SDS011;7469;50.906;6.952;2022-08-01T07:59:35;7.97;;;6.50;;
14754;SDS011;7469;50.906;6.952;2022-08-01T08:02:03;6.83;;;6.13;;
14754;SDS011;7469;50.906;6.952;2022-08-01T08:04:32;7.73;;;6.70;;
14754;SDS011;7469;50.906;6.952;2022-08-01T08:07:02;10.10;;;6.47;;
14754;SDS011;7469;50.906;6.952;2022-08-01T08:09:30;7.20;;;5.77;;
14754;SDS011;7469;50.906;6.952;2022-08-01T08:12:03;7.43;;;6.17;;
14754;SDS011;7469;50.906;6.952;2022-08-01T08:14:33;9.33;;;5.73;;
14754;SDS011;7469;50.906;6.952;2022-08-01T08:17:01;10.47;;;6.00;;
14754;SDS011;7469;50.906;6.952;2022-08-01T08:19:29;7.20;;;5.17;;
14754;SDS011;7469;50.906;6.952;2022-08-01T08:22:04;7.90;;;5.07;;
14754;SDS011;7469;50.906;6.952;2022-08-01T08:24:34;7.43;;;5.47;;
14754;SDS011;7469;50.906;6.952;2022-08-01T08:27:12;6.70;;;4.70;;
14754;SDS011;7469;50.906;6.952;2022-08-01T08:29:44;7.13;;;5.57;;
14754;SDS011;7469;50.906;6.952;2022-08-01T08:32:12;8.33;;;6.07;;
14754;SDS011;7469;50.906;6.952;2022-08-01T08:34:41;7.40;;;5.70;;
14754;SDS011;7469;50.906;6.952;2022-08-01T08:37:11;6.80;;;5.30;;
14754;SDS011;7469;50.906;6.952;2022-08-01T08:39:39;5.73;;;5.10;;
14754;SDS011;7469;50.906;6.952;2022-08-01T08:42:08;7.90;;;4.70;;
14754;SDS011;7469;50.906;6.952;2022-08-01T08:44:36;6.90;;;4.90;;
14754;SDS011;7469;50.906;6.952;2022-08-01T08:47:09;8.43;;;4.73;;
14754;SDS011;7469;50.906;6.952;2022-08-01T08:49:45;8.70;;;5.10;;
14754;SDS011;7469;50.906;6.952;2022-08-01T08:52:16;8.77;;;4.90;;
14754;SDS011;7469;50.906;6.952;2022-08-01T08:54:47;6.17;;;4.90;;
14754;SDS011;7469;50.906;6.952;2022-08-01T08:57:15;5.70;;;5.10;;
14754;SDS011;7469;50.906;6.952;2022-08-01T08:59:46;10.30;;;5.27;;
14754;SDS011;7469;50.906;6.952;2022-08-01T09:02:17;6.50;;;4.87;;
14754;SDS011;7469;50.906;6.952;2022-08-01T09:04:46;7.20;;;5.50;;
14754;SDS011;7469;50.906;6.952;2022-08-01T09:07:17;8.20;;;5.20;;
14754;SDS011;7469;50.906;6.952;2022-08-01T09:09:45;7.23;;;4.83;;
14754;SDS011;7469;50.906;6.952;2022-08-01T09:12:16;10.20;;;4.97;;
14754;SDS011;7469;50.906;6.952;2022-08-01T09:14:45;5.13;;;4.60;;
14754;SDS011;7469;50.906;6.952;2022-08-01T09:17:16;5.97;;;4.53;;
14754;SDS011;7469;50.906;6.952;2022-08-01T09:19:45;8.50;;;4.63;;
14754;SDS011;7469;50.906;6.952;2022-08-01T09:22:15;5.80;;;4.13;;
14754;SDS011;7469;50.906;6.952;2022-08-01T09:24:59;9.17;;;4.87;;
14754;SDS011;7469;50.906;6.952;2022-08-01T09:27:28;9.30;;;4.47;;
14754;SDS011;7469;50.906;6.952;2022-08-01T09:30:06;6.73;;;4.60;;
14754;SDS011;7469;50.906;6.952;2022-08-01T09:32:37;5.20;;;3.80;;
14754;SDS011;7469;50.906;6.952;2022-08-01T09:35:24;4.40;;;4.00;;
14754;SDS011;7469;50.906;6.952;2022-08-01T09:38:17;6.60;;;3.97;;
14754;SDS011;7469;50.906;6.952;2022-08-01T09:40:46;5.23;;;3.70;;
14754;SDS011;7469;50.906;6.952;2022-08-01T09:43:17;5.17;;;3.67;;
14754;SDS011;7469;50.906;6.952;2022-08-01T09:45:46;3.57;;;3.20;;
14754;SDS011;7469;50.906;6.952;2022-08-01T09:48:18;5.47;;;4.03;;
14754;SDS011;7469;50.906;6.952;2022-08-01T09:50:54;5.97;;;4.30;;
14754;SDS011;7469;50.906;6.952;2022-08-01T09:53:40;9.23;;;3.57;;
14754;SDS011;7469;50.906;6.952;2022-08-01T09:56:18;4.23;;;3.57;;
14754;SDS011;7469;50.906;6.952;2022-08-01T09:58:51;3.47;;;3.17;;
14754;SDS011;7469;50.906;6.952;2022-08-01T10:01:28;4.10;;;3.10;;
14754;SDS011;7469;50.906;6.952;2022-08-01T10:04:10;7.10;;;3.30;;
14754;SDS011;7469;50.906;6.952;2022-08-01T10:06:42;4.77;;;3.33;;
14754;SDS011;7469;50.906;6.952;2022-08-01T10:09:13;4.23;;;3.10;;
14754;SDS011;7469;50.906;6.952;2022-08-01T10:11:42;5.20;;;3.50;;
14754;SDS011;7469;50.906;6.952;2022-08-01T10:14:11;4.37;;;3.30;;
14754;SDS011;7469;50.906;6.952;2022-08-01T10:16:43;3.47;;;3.00;;
14754;SDS011;7469;50.906;6.952;2022-08-01T10:19:30;3.77;;;3.10;;
14754;SDS011;7469;50.906;6.952;2022-08-01T10:21:59;3.93;;;3.10;;
14754;SDS011;7469;50.906;6.952;2022-08-01T10:24:29;4.70;;;3.03;;
14754;SDS011;7469;50.906;6.952;2022-08-01T10:26:59;7.27;;;5.47;;
14754;SDS011;7469;50.906;6.952;2022-08-01T10:29:40;5.10;;;4.60;;
14754;SDS011;7469;50.906;6.952;2022-08-01T10:32:30;3.80;;;3.40;;
14754;SDS011;7469;50.906;6.952;2022-08-01T10:35:00;3.70;;;3.33;;
14754;SDS011;7469;50.906;6.952;2022-08-01T10:37:32;8.80;;;3.23;;
14754;SDS011;7469;50.906;6.952;2022-08-01T10:40:19;4.70;;;3.40;;
14754;SDS011;7469;50.906;6.952;2022-08-01T10:42:57;3.83;;;3.33;;
14754;SDS011;7469;50.906;6.952;2022-08-01T10:45:25;3.83;;;3.40;;
14754;SDS011;7469;50.906;6.952;2022-08-01T10:47:57;4.67;;;3.50;;
14754;SDS011;7469;50.906;6.952;2022-08-01T10:50:33;3.97;;;3.30;;
14754;SDS011;7469;50.906;6.952;2022-08-01T10:53:15;5.17;;;3.00;;
14754;SDS011;7469;50.906;6.952;2022-08-01T10:55:52;4.57;;;2.80;;
14754;SDS011;7469;50.906;6.952;2022-08-01T10:58:28;3.53;;;2.70;;
14754;SDS011;7469;50.906;6.952;2022-08-01T11:01:20;3.93;;;2.93;;
14754;SDS011;7469;50.906;6.952;2022-08-01T11:03:58;4.60;;;3.27;;
14754;SDS011;7469;50.906;6.952;2022-08-01T11:06:40;7.37;;;3.20;;
14754;SDS011;7469;50.906;6.952;2022-08-01T11:09:19;4.47;;;3.17;;
14754;SDS011;7469;50.906;6.952;2022-08-01T11:12:04;4.30;;;3.30;;
14754;SDS011;7469;50.906;6.952;2022-08-01T11:18:00;3.90;;;3.03;;
14754;SDS011;7469;50.906;6.952;2022-08-01T11:20:30;5.17;;;2.90;;
14754;SDS011;7469;50.906;6.952;2022-08-01T11:23:16;3.10;;;2.80;;
14754;SDS011;7469;50.906;6.952;2022-08-01T11:26:10;4.50;;;2.70;;
14754;SDS011;7469;50.906;6.952;2022-08-01T11:31:48;3.73;;;3.00;;
14754;SDS011;7469;50.906;6.952;2022-08-01T11:34:18;3.67;;;2.93;;
14754;SDS011;7469;50.906;6.952;2022-08-01T11:36:47;3.23;;;2.93;;
14754;SDS011;7469;50.906;6.952;2022-08-01T11:39:30;4.47;;;3.07;;
14754;SDS011;7469;50.906;6.952;2022-08-01T11:42:17;2.90;;;2.70;;
14754;SDS011;7469;50.906;6.952;2022-08-01T11:44:51;3.20;;;2.37;;
14754;SDS011;7469;50.906;6.952;2022-08-01T11:50:31;4.37;;;2.67;;
14754;SDS011;7469;50.906;6.952;2022-08-01T11:53:01;4.17;;;3.23;;
14754;SDS011;7469;50.906;6.952;2022-08-01T11:55:30;5.80;;;3.30;;
14754;SDS011;7469;50.906;6.952;2022-08-01T11:58:01;4.83;;;3.00;;
14754;SDS011;7469;50.906;6.952;2022-08-01T12:00:35;4.33;;;3.53;;
14754;SDS011;7469;50.906;6.952;2022-08-01T12:03:09;5.70;;;3.40;;
14754;SDS011;7469;50.906;6.952;2022-08-01T12:05:50;4.17;;;3.13;;
14754;SDS011;7469;50.906;6.952;2022-08-01T12:08:24;3.77;;;3.07;;
14754;SDS011;7469;50.906;6.952;2022-08-01T12:10:52;3.07;;;2.67;;
14754;SDS011;7469;50.906;6.952;2022-08-01T12:13:27;3.00;;;2.77;;
14754;SDS011;7469;50.906;6.952;2022-08-01T12:16:07;2.67;;;2.47;;
14754;SDS011;7469;50.906;6.952;2022-08-01T12:18:37;6.00;;;3.10;;
14754;SDS011;7469;50.906;6.952;2022-08-01T12:21:06;3.53;;;2.50;;
14754;SDS011;7469;50.906;6.952;2022-08-01T12:23:35;2.30;;;2.10;;
14754;SDS011;7469;50.906;6.952;2022-08-01T12:26:02;2.90;;;2.50;;
14754;SDS011;7469;50.906;6.952;2022-08-01T12:28:38;2.97;;;2.47;;
14754;SDS011;7469;50.906;6.952;2022-08-01T12:31:08;4.73;;;2.37;;
14754;SDS011;7469;50.906;6.952;2022-08-01T12:33:38;3.67;;;2.57;;
14754;SDS011;7469;50.906;6.952;2022-08-01T12:36:06;2.63;;;2.40;;
14754;SDS011;7469;50.906;6.952;2022-08-01T12:38:39;3.10;;;2.80;;
14754;SDS011;7469;50.906;6.952;2022-08-01T12:41:09;3.37;;;2.73;;
14754;SDS011;7469;50.906;6.952;2022-08-01T12:43:37;6.43;;;2.70;;
14754;SDS011;7469;50.906;6.952;2022-08-01T12:46:08;5.13;;;2.97;;
14754;SDS011;7469;50.906;6.952;2022-08-01T12:48:42;4.80;;;2.67;;
14754;SDS011;7469;50.906;6.952;2022-08-01T12:51:10;4.83;;;3.33;;
14754;SDS011;7469;50.906;6.952;2022-08-01T12:53:38;3.67;;;3.30;;
14754;SDS011;7469;50.906;6.952;2022-08-01T12:56:07;5.03;;;3.07;;
14754;SDS011;7469;50.906;6.952;2022-08-01T12:58:36;3.83;;;2.87;;
14754;SDS011;7469;50.906;6.952;2022-08-01T13:01:05;3.83;;;2.97;;
14754;SDS011;7469;50.906;6.952;2022-08-01T13:03:36;5.77;;;2.70;;
14754;SDS011;7469;50.906;6.952;2022-08-01T13:06:09;3.57;;;2.83;;
14754;SDS011;7469;50.906;6.952;2022-08-01T13:08:41;4.33;;;2.73;;
14754;SDS011;7469;50.906;6.952;2022-08-01T13:11:10;5.27;;;2.80;;
14754;SDS011;7469;50.906;6.952;2022-08-01T13:13:43;3.10;;;2.80;;
14754;SDS011;7469;50.906;6.952;2022-08-01T13:16:14;3.93;;;2.30;;
14754;SDS011;7469;50.906;6.952;2022-08-01T13:19:05;4.07;;;2.43;;
14754;SDS011;7469;50.906;6.952;2022-08-01T13:21:33;3.67;;;2.73;;
14754;SDS011;7469;50.906;6.952;2022-08-01T13:24:22;2.40;;;2.20;;
14754;SDS011;7469;50.906;6.952;2022-08-01T13:26:53;4.53;;;2.20;;
14754;SDS011;7469;50.906;6.952;2022-08-01T13:29:29;4.23;;;2.30;;
14754;SDS011;7469;50.906;6.952;2022-08-01T13:32:00;3.90;;;2.37;;
14754;SDS011;7469;50.906;6.952;2022-08-01T13:35:01;3.23;;;1.90;;
14754;SDS011;7469;50.906;6.952;2022-08-01T13:37:31;5.10;;;1.87;;
14754;SDS011;7469;50.906;6.952;2022-08-01T13:39:59;5.53;;;2.10;;
14754;SDS011;7469;50.906;6.952;2022-08-01T13:42:27;6.13;;;2.20;;
14754;SDS011;7469;50.906;6.952;2022-08-01T13:44:56;3.00;;;1.63;;
14754;SDS011;7469;50.906;6.952;2022-08-01T13:47:24;2.67;;;1.60;;
14754;SDS011;7469;50.906;6.952;2022-08-01T13:49:57;4.47;;;1.70;;
14754;SDS011;7469;50.906;6.952;2022-08-01T13:52:28;4.17;;;1.90;;
14754;SDS011;7469;50.906;6.952;2022-08-01T13:54:57;4.03;;;1.70;;
14754;SDS011;7469;50.906;6.952;2022-08-01T13:57:25;1.77;;;1.67;;
14754;SDS011;7469;50.906;6.952;2022-08-01T14:00:03;1.70;;;1.60;;
14754;SDS011;7469;50.906;6.952;2022-08-01T14:02:32;1.80;;;1.37;;
14754;SDS011;7469;50.906;6.952;2022-08-01T14:05:00;4.53;;;1.70;;
14754;SDS011;7469;50.906;6.952;2022-08-01T14:07:30;5.80;;;1.60;;
14754;SDS011;7469;50.906;6.952;2022-08-01T14:09:58;2.40;;;1.37;;
14754;SDS011;7469;50.906;6.952;2022-08-01T14:12:45;4.87;;;1.63;;
14754;SDS011;7469;50.906;6.952;2022-08-01T14:15:13;2.47;;;1.67;;
14754;SDS011;7469;50.906;6.952;2022-08-01T14:18:01;4.73;;;1.80;;
14754;SDS011;7469;50.906;6.952;2022-08-01T14:20:31;3.50;;;1.60;;
14754;SDS011;7469;50.906;6.952;2022-08-01T14:23:01;1.60;;;1.50;;
14754;SDS011;7469;50.906;6.952;2022-08-01T14:25:33;1.67;;;1.57;;
14754;SDS011;7469;50.906;6.952;2022-08-01T14:28:22;2.73;;;1.77;;
14754;SDS011;7469;50.906;6.952;2022-08-01T14:30:53;2.20;;;1.50;;
14754;SDS011;7469;50.906;6.952;2022-08-01T14:33:22;1.57;;;1.40;;
14754;SDS011;7469;50.906;6.952;2022-08-01T14:35:50;3.43;;;1.70;;
14754;SDS011;7469;50.906;6.952;2022-08-01T14:38:34;1.97;;;1.53;;
14754;SDS011;7469;50.906;6.952;2022-08-01T14:41:02;3.93;;;1.70;;
14754;SDS011;7469;50.906;6.952;2022-08-01T14:43:30;3.13;;;1.40;;
14754;SDS011;7469;50.906;6.952;2022-08-01T14:45:59;3.00;;;1.70;;
14754;SDS011;7469;50.906;6.952;2022-08-01T14:48:29;4.33;;;1.50;;
14754;SDS011;7469;50.906;6.952;2022-08-01T14:50:58;4.97;;;1.33;;
14754;SDS011;7469;50.906;6.952;2022-08-01T14:53:28;1.50;;;1.40;;
14754;SDS011;7469;50.906;6.952;2022-08-01T14:56:00;2.03;;;1.40;;
14754;SDS011;7469;50.906;6.952;2022-08-01T14:58:29;1.37;;;1.27;;
14754;SDS011;7469;50.906;6.952;2022-08-01T15:00:57;3.20;;;1.50;;
14754;SDS011;7469;50.906;6.952;2022-08-01T15:03:25;3.83;;;1.17;;
14754;SDS011;7469;50.906;6.952;2022-08-01T15:05:53;6.63;;;1.60;;
14754;SDS011;7469;50.906;6.952;2022-08-01T15:08:21;1.83;;;1.30;;
14754;SDS011;7469;50.906;6.952;2022-08-01T15:10:49;2.60;;;1.57;;
14754;SDS011;7469;50.906;6.952;2022-08-01T15:13:19;1.30;;;1.30;;
14754;SDS011;7469;50.906;6.952;2022-08-01T15:15:47;2.27;;;1.50;;
14754;SDS011;7469;50.906;6.952;2022-08-01T15:18:15;1.80;;;1.40;;
14754;SDS011;7469;50.906;6.952;2022-08-01T15:20:43;7.43;;;1.50;;
14754;SDS011;7469;50.906;6.952;2022-08-01T15:23:11;1.20;;;1.10;;
14754;SDS011;7469;50.906;6.952;2022-08-01T15:25:39;4.33;;;1.40;;
14754;SDS011;7469;50.906;6.952;2022-08-01T15:28:07;5.90;;;1.53;;
14754;SDS011;7469;50.906;6.952;2022-08-01T15:30:37;2.27;;;1.30;;
14754;SDS011;7469;50.906;6.952;2022-08-01T15:33:05;4.37;;;1.10;;
14754;SDS011;7469;50.906;6.952;2022-08-01T15:35:34;1.60;;;1.50;;
14754;SDS011;7469;50.906;6.952;2022-08-01T15:38:02;2.07;;;1.40;;